Map

Track Data

SID SEASON NUMBER BASIN SUBBASIN NAME ISO_TIME NATURE LAT LON WMO_WIND WMO_PRES WMO_AGENCY TRACK_TYPE DIST2LAND LANDFALL IFLAG USA_AGENCY USA_ATCF_ID USA_LAT USA_LON USA_RECORD USA_STATUS USA_WIND USA_PRES USA_SSHS USA_R34_NE USA_R34_SE USA_R34_SW USA_R34_NW USA_R50_NE USA_R50_SE USA_R50_SW USA_R50_NW USA_R64_NE USA_R64_SE USA_R64_SW USA_R64_NW USA_POCI USA_ROCI USA_RMW USA_EYE TOKYO_LAT TOKYO_LON TOKYO_GRADE TOKYO_WIND TOKYO_PRES TOKYO_R50_DIR TOKYO_R50_LONG TOKYO_R50_SHORT TOKYO_R30_DIR TOKYO_R30_LONG TOKYO_R30_SHORT TOKYO_LAND CMA_LAT CMA_LON CMA_CAT CMA_WIND CMA_PRES HKO_LAT HKO_LON HKO_CAT HKO_WIND HKO_PRES NEWDELHI_LAT NEWDELHI_LON NEWDELHI_GRADE NEWDELHI_WIND NEWDELHI_PRES NEWDELHI_CI NEWDELHI_DP NEWDELHI_POCI REUNION_LAT REUNION_LON REUNION_TYPE REUNION_WIND REUNION_PRES REUNION_TNUM REUNION_CI REUNION_RMW REUNION_R34_NE REUNION_R34_SE REUNION_R34_SW REUNION_R34_NW REUNION_R50_NE REUNION_R50_SE REUNION_R50_SW REUNION_R50_NW REUNION_R64_NE REUNION_R64_SE REUNION_R64_SW REUNION_R64_NW BOM_LAT BOM_LON BOM_TYPE BOM_WIND BOM_PRES BOM_TNUM BOM_CI BOM_RMW BOM_R34_NE BOM_R34_SE BOM_R34_SW BOM_R34_NW BOM_R50_NE BOM_R50_SE BOM_R50_SW BOM_R50_NW BOM_R64_NE BOM_R64_SE BOM_R64_SW BOM_R64_NW BOM_ROCI BOM_POCI BOM_EYE BOM_POS_METHOD BOM_PRES_METHOD NADI_LAT NADI_LON NADI_CAT NADI_WIND NADI_PRES WELLINGTON_LAT WELLINGTON_LON WELLINGTON_WIND WELLINGTON_PRES DS824_LAT DS824_LON DS824_STAGE DS824_WIND DS824_PRES TD9636_LAT TD9636_LON TD9636_STAGE TD9636_WIND TD9636_PRES TD9635_LAT TD9635_LON TD9635_WIND TD9635_PRES TD9635_ROCI NEUMANN_LAT NEUMANN_LON NEUMANN_CLASS NEUMANN_WIND NEUMANN_PRES MLC_LAT MLC_LON MLC_CLASS MLC_WIND MLC_PRES USA_GUST BOM_GUST BOM_GUST_PER REUNION_GUST REUNION_GUST_PER USA_SEAHGT USA_SEARAD_NE USA_SEARAD_SE USA_SEARAD_SW USA_SEARAD_NW STORM_SPEED STORM_DIR
1945008S08069 1945 1 SI MM NOT_NAMED 1945-01-08 06:00:00 NR -8.10000 68.9000 reunion spur-merge 1805 1805 _____O________ -1 -8.10000 68.9000 99 9.90000 1 0
1945008S08069 1945 1 SI MM NOT_NAMED 1945-01-08 09:00:00 NR -8.12506 68.9030 spur-merge 1805 1796 _____P________ -1 -8.12506 68.9030 99 1 191
1945008S08069 1945 1 SI MM NOT_NAMED 1945-01-08 12:00:00 NR -8.15488 68.8951 spur-merge 1796 1796 _____P________ -1 -8.15488 68.8951 99 1 209
1945008S08069 1945 1 SI MM NOT_NAMED 1945-01-08 15:00:00 NR -8.19423 68.8652 spur-merge 1796 1789 _____P________ -1 -8.19423 68.8652 99 1 225
1945008S08069 1945 1 SI MM NOT_NAMED 1945-01-08 18:00:00 NR -8.24786 68.8023 spur-merge 1789 1773 _____P________ -1 -8.24786 68.8023 99 2 233
1945008S08069 1945 1 SI MM NOT_NAMED 1945-01-08 21:00:00 NR -8.32054 68.6954 spur-merge 1773 1750 _____P________ -1 -8.32054 68.6954 99 3 237
1945008S08069 1945 1 SI MM NOT_NAMED 1945-01-09 00:00:00 NR -8.41699 68.5335 spur-merge 1750 1728 _____P________ -1 -8.41699 68.5335 99 4 240
1945008S08069 1945 1 SI MM NOT_NAMED 1945-01-09 03:00:00 NR -8.54193 68.3054 spur-merge 1728 1689 _____P________ -1 -8.54193 68.3054 99 6 242
1945008S08069 1945 1 SI MM NOT_NAMED 1945-01-09 06:00:00 NR -8.70000 68.0000 reunion spur-merge 1689 1644 _____O________ -1 -8.70000 68.0000 99 9.90000 8 243
1945008S08069 1945 1 SI MM NOT_NAMED 1945-01-09 09:00:00 NR -8.89363 67.6110 spur-merge 1644 1599 _____P________ -1 -8.89363 67.6110 99 9 244
1945008S08069 1945 1 SI MM NOT_NAMED 1945-01-09 12:00:00 NR -9.11653 67.1521 spur-merge 1599 1547 _____P________ -1 -9.11653 67.1521 99 11 244
1945008S08069 1945 1 SI MM NOT_NAMED 1945-01-09 15:00:00 NR -9.36023 66.6424 spur-merge 1532 1481 _____P________ -1 -9.36023 66.6424 99 12 244
1945008S08069 1945 1 SI MM NOT_NAMED 1945-01-09 18:00:00 NR -9.61632 66.1008 spur-merge 1481 1421 _____P________ -1 -9.61632 66.1008 99 12 244
1945008S08069 1945 1 SI MM NOT_NAMED 1945-01-09 21:00:00 NR -9.87649 65.5464 spur-merge 1415 1365 _____P________ -1 -9.87649 65.5464 99 12 245
1945008S08069 1945 1 SI MM NOT_NAMED 1945-01-10 00:00:00 NR -10.1325 64.9986 spur-merge 1365 1307 _____P________ -1 -10.1325 64.9986 99 12 245
1945008S08069 1945 1 SI MM NOT_NAMED 1945-01-10 03:00:00 NR -10.3763 64.4767 spur-merge 1307 1259 _____P________ -1 -10.3763 64.4767 99 11 245
1945008S08069 1945 1 SI MM NOT_NAMED 1945-01-10 06:00:00 NR -10.6000 64.0000 reunion spur-merge 1259 1217 _____O________ -1 -10.6000 64.0000 99 9.90000 9 244
1945008S08069 1945 1 SI MM NOT_NAMED 1945-01-10 09:00:00 NR -10.7737 63.6292 spur-merge 1217 1191 _____P________ -1 -10.7977 63.5834 99 8 244
1945008S08069 1945 1 SI MM NOT_NAMED 1945-01-10 12:00:00 NR -10.9309 63.2952 spur-merge 1191 1156 _____P________ -1 -10.9711 63.2234 99 7 244
1945008S08069 1945 1 SI MM NOT_NAMED 1945-01-10 15:00:00 NR -11.0746 62.9933 spur-merge 1156 1130 _____P________ -1 -11.1239 62.9121 99 6 244
1945008S08069 1945 1 SI MM NOT_NAMED 1945-01-10 18:00:00 NR -11.2080 62.7187 spur-merge 1130 1110 _____P________ -1 -11.2595 62.6412 99 6 243
1945008S08069 1945 1 SI MM NOT_NAMED 1945-01-10 21:00:00 NR -11.3343 62.4669 spur-merge 1110 1086 _____P________ -1 -11.3816 62.4026 99 5 242
1945008S08069 1945 1 SI MM NOT_NAMED 1945-01-11 00:00:00 NR -11.4563 62.2330 spur-merge 1076 1056 _____P________ -1 -11.4934 62.1883 99 5 241
1945008S08069 1945 1 SI MM NOT_NAMED 1945-01-11 03:00:00 NR -11.5772 62.0123 spur-merge 1056 1037 _____P________ -1 -11.5984 61.9902 99 5 240
1945008S08069 1945 1 SI MM NOT_NAMED 1945-01-11 06:00:00 NR -11.7000 61.8000 reunion spur-merge 1037 1018 _____O________ -1 -11.7000 61.8000 99 9.90000 5 243
1945008S08069 1945 1 SI MM NOT_NAMED 1945-01-11 09:00:00 NR -11.8029 61.5582 spur-merge 1018 995 ______________ -1 99 5 246
1945008S08069 1945 1 SI MM NOT_NAMED 1945-01-11 12:00:00 NR -11.9017 61.3276 spur-merge 995 976 ______________ -1 99 5 246
1945008S08069 1945 1 SI MM NOT_NAMED 1945-01-11 15:00:00 NR -12.0033 61.1085 spur-merge 976 ______________ -1 99 5 245

About IBTrACS Database

This database is a web-friendly format of International Best Track Archive for Climate Stewardship (IBTrACS), a global best track data archive curated by NOAA dating back to 1842.

Updated: 2021-10-08